Terminal Aerodrome Forecast
Issued by NWS

Home | Current Version | Previous Version | Text Only | Print | Product List | Glossary On
Versions: 1 2 3 4 5 6 7 8 9 10 11 12 13 14 15 16 17 18 19 20 21
000
FTUS43 KPAH 182000 AAA
TAFCGI
TAF AMD
KCGI 182036Z 1821/1918 07004KT P6SM SCT009 OVC015
      TEMPO 1821/1823 5SM BR OVC009
     FM182300 04002KT P6SM OVC025
      TEMPO 1908/1912 4SM BR
     FM191500 05004KT P6SM BKN030=

USA.gov is the U.S. government's official web portal to all federal, state and local government web resources and services.